Airfield :
LOGIN :

Register | Disclaimer

   EN    FR    IT 

 










Legend :    VFR   Marginal VFR   IFR   Intensive IFR   Very Intensive IFR
Visi :
Ceiling :
>= 8 km
>= 3000ft
5 to 8 km
1000 to 3000 ft
1500m to 5 km
500 to 1000 ft
800 to 1500m
200 to 500 ft
< 800m
< 200 ft
Symbols :   Thunderstorms  Fog  Heavy snow  Heavy precipitations  Wind > 20 kt
SIGMETs :     Misc.  Thunderstorms  Icing  Turbulence  Mountain Waves  Volcanic Ashes







- Airport Elevation : 10 ft
- IATA code : AAL


EKYT - Aalborg

CURRENT METAR :
  • 211020Z 26009KT 9999 FEW015TCU SCT030 19/17 Q1010

EXPIRED METARs :
  • 210950Z 24011KT 9999 FEW016TCU SCT035 20/17 Q1010
  • 210920Z AUTO 24009KT 9999 FEW015/// SCT025/// BKN080/// 20/16 Q1010
  • 210850Z AUTO 22009KT 9999 FEW012/// SCT015/// BKN018/// BKN027/// 19/17 Q1010
  • 210820Z AUTO 22008KT 9999 FEW011/// SCT024/// BKN080/// 19/17 Q1010
  • 210750Z AUTO 22010KT 9999 FEW011/// BKN022/// 18/17 Q1009
  • 210720Z AUTO 21009KT 9999 FEW008/// BKN017/// BKN021/// 18/17 Q1009

TAF TAF EKYT
Valid from the 21 at 09:00 until the 22 at 09:00 UTC


210827Z 2109/2209 21008KT 9999 FEW008 BKN020
TEMPO 2109/2116 3000 SHRA BKN008 SCT020CB
PROB40 2109/2116 TSRA
BECMG 2110/2113 27015G25KT
BECMG 2117/2120 26010KT
TEMPO 2123/2205 BKN006
BECMG 2206/2209 20010KT 7000 -RA BKN012
No reported NOTAMs for that airfield.



MET'MAP, your aeronautical weather chart ! - Copyright ORBIFLY December 2007 - Disclaimer

ORBIFLY MET'MAP TEAM :

Programming & Development : Alexandra Zaïnal
Concept & Development : Baudouin d'Aumeries
Co-Development & Prog : Marc-Olivier Méhu
Technical & hardware support : Manuel Goepfert

Contact : metmap@orbifly.com




SOURCES & CREDITS :

   NOAA